Terminal Aerodrome Forecast
Issued by NWS

Home | Current Version | Previous Version | Text Only | Print | Product List | Glossary On
Versions: 1 2 3 4 5 6 7 8 9 10 11 12 13 14
025
FTUS43 KEAX 260520
TAFMKC
TAF
KMKC 260520Z 2606/2706 VRB04KT P6SM OVC008
      TEMPO 2608/2612 OVC007
     FM261600 VRB03KT P6SM BKN010
     FM261900 VRB03KT P6SM BKN025
     FM262300 00000KT P6SM BKN035=

USA.gov is the U.S. government's official web portal to all federal, state and local government web resources and services.